sensor_id;sensor_type;location;lat;lon;timestamp;P1;durP1;ratioP1;P2;durP2;ratioP2
47896;SDS011;39629;51.400;5.494;2023-05-07T00:03:37;7.13;;;4.65;;
47896;SDS011;39629;51.400;5.494;2023-05-07T00:08:40;5.63;;;3.72;;
47896;SDS011;39629;51.400;5.494;2023-05-07T00:13:42;4.95;;;3.42;;
47896;SDS011;39629;51.400;5.494;2023-05-07T00:18:43;7.25;;;4.45;;
47896;SDS011;39629;51.400;5.494;2023-05-07T00:23:47;6.88;;;4.68;;
47896;SDS011;39629;51.400;5.494;2023-05-07T00:28:48;7.45;;;5.90;;
47896;SDS011;39629;51.400;5.494;2023-05-07T00:33:50;7.55;;;5.82;;
47896;SDS011;39629;51.400;5.494;2023-05-07T00:38:53;6.97;;;4.97;;
47896;SDS011;39629;51.400;5.494;2023-05-07T00:43:55;6.47;;;4.68;;
47896;SDS011;39629;51.400;5.494;2023-05-07T00:48:57;6.72;;;5.45;;
47896;SDS011;39629;51.400;5.494;2023-05-07T00:54:01;7.28;;;5.00;;
47896;SDS011;39629;51.400;5.494;2023-05-07T00:59:03;7.45;;;5.28;;
47896;SDS011;39629;51.400;5.494;2023-05-07T01:04:05;10.25;;;6.68;;
47896;SDS011;39629;51.400;5.494;2023-05-07T01:09:08;8.57;;;6.00;;
47896;SDS011;39629;51.400;5.494;2023-05-07T01:14:10;9.50;;;6.13;;
47896;SDS011;39629;51.400;5.494;2023-05-07T01:19:12;11.40;;;7.60;;
47896;SDS011;39629;51.400;5.494;2023-05-07T01:24:18;10.35;;;7.38;;
47896;SDS011;39629;51.400;5.494;2023-05-07T01:29:20;13.10;;;8.40;;
47896;SDS011;39629;51.400;5.494;2023-05-07T01:34:22;10.73;;;7.00;;
47896;SDS011;39629;51.400;5.494;2023-05-07T01:39:28;9.83;;;7.23;;
47896;SDS011;39629;51.400;5.494;2023-05-07T01:44:30;11.82;;;7.53;;
47896;SDS011;39629;51.400;5.494;2023-05-07T01:49:32;9.05;;;5.57;;
47896;SDS011;39629;51.400;5.494;2023-05-07T01:54:35;11.55;;;8.10;;
47896;SDS011;39629;51.400;5.494;2023-05-07T01:59:37;10.07;;;7.28;;
47896;SDS011;39629;51.400;5.494;2023-05-07T02:04:38;12.02;;;8.23;;
47896;SDS011;39629;51.400;5.494;2023-05-07T02:09:41;12.95;;;8.13;;
47896;SDS011;39629;51.400;5.494;2023-05-07T02:14:43;9.65;;;6.10;;
47896;SDS011;39629;51.400;5.494;2023-05-07T02:19:45;12.15;;;8.18;;
47896;SDS011;39629;51.400;5.494;2023-05-07T02:24:48;15.10;;;8.98;;
47896;SDS011;39629;51.400;5.494;2023-05-07T02:29:50;11.25;;;7.47;;
47896;SDS011;39629;51.400;5.494;2023-05-07T02:34:52;14.25;;;9.50;;
47896;SDS011;39629;51.400;5.494;2023-05-07T02:39:55;14.60;;;10.07;;
47896;SDS011;39629;51.400;5.494;2023-05-07T02:44:57;14.60;;;9.68;;
47896;SDS011;39629;51.400;5.494;2023-05-07T02:49:59;13.77;;;9.38;;
47896;SDS011;39629;51.400;5.494;2023-05-07T02:55:02;9.40;;;6.07;;
47896;SDS011;39629;51.400;5.494;2023-05-07T03:00:10;16.25;;;11.23;;
47896;SDS011;39629;51.400;5.494;2023-05-07T03:05:15;16.30;;;10.85;;
47896;SDS011;39629;51.400;5.494;2023-05-07T03:10:18;13.90;;;9.77;;
47896;SDS011;39629;51.400;5.494;2023-05-07T03:15:20;10.90;;;6.82;;
47896;SDS011;39629;51.400;5.494;2023-05-07T03:20:22;11.00;;;7.15;;
47896;SDS011;39629;51.400;5.494;2023-05-07T03:25:25;12.05;;;7.65;;
47896;SDS011;39629;51.400;5.494;2023-05-07T03:30:26;13.60;;;9.93;;
47896;SDS011;39629;51.400;5.494;2023-05-07T03:35:28;16.65;;;10.57;;
47896;SDS011;39629;51.400;5.494;2023-05-07T03:40:31;15.30;;;9.82;;
47896;SDS011;39629;51.400;5.494;2023-05-07T03:45:33;17.25;;;10.82;;
47896;SDS011;39629;51.400;5.494;2023-05-07T03:50:46;16.48;;;10.82;;
47896;SDS011;39629;51.400;5.494;2023-05-07T03:55:51;18.42;;;11.80;;
47896;SDS011;39629;51.400;5.494;2023-05-07T04:00:54;17.13;;;11.75;;
47896;SDS011;39629;51.400;5.494;2023-05-07T04:06:00;19.42;;;12.68;;
47896;SDS011;39629;51.400;5.494;2023-05-07T04:11:03;16.25;;;11.48;;
47896;SDS011;39629;51.400;5.494;2023-05-07T04:16:07;17.17;;;10.60;;
47896;SDS011;39629;51.400;5.494;2023-05-07T04:21:13;19.70;;;12.85;;
47896;SDS011;39629;51.400;5.494;2023-05-07T04:26:17;24.00;;;13.73;;
47896;SDS011;39629;51.400;5.494;2023-05-07T04:31:20;23.42;;;11.60;;
47896;SDS011;39629;51.400;5.494;2023-05-07T04:36:25;22.90;;;14.40;;
47896;SDS011;39629;51.400;5.494;2023-05-07T04:41:34;22.77;;;13.52;;
47896;SDS011;39629;51.400;5.494;2023-05-07T04:46:38;21.83;;;14.18;;
47896;SDS011;39629;51.400;5.494;2023-05-07T04:51:39;26.92;;;15.45;;
47896;SDS011;39629;51.400;5.494;2023-05-07T04:56:45;17.35;;;11.75;;
47896;SDS011;39629;51.400;5.494;2023-05-07T05:01:46;19.90;;;14.02;;
47896;SDS011;39629;51.400;5.494;2023-05-07T05:06:48;24.58;;;15.00;;
47896;SDS011;39629;51.400;5.494;2023-05-07T05:11:52;21.52;;;13.45;;
47896;SDS011;39629;51.400;5.494;2023-05-07T05:16:54;23.13;;;14.80;;
47896;SDS011;39629;51.400;5.494;2023-05-07T05:21:56;25.52;;;15.13;;
47896;SDS011;39629;51.400;5.494;2023-05-07T05:26:59;25.35;;;16.60;;
47896;SDS011;39629;51.400;5.494;2023-05-07T05:32:03;26.05;;;16.45;;
47896;SDS011;39629;51.400;5.494;2023-05-07T05:37:05;24.50;;;16.00;;
47896;SDS011;39629;51.400;5.494;2023-05-07T05:42:08;27.70;;;17.25;;
47896;SDS011;39629;51.400;5.494;2023-05-07T05:47:10;25.58;;;16.40;;
47896;SDS011;39629;51.400;5.494;2023-05-07T05:52:12;27.48;;;16.75;;
47896;SDS011;39629;51.400;5.494;2023-05-07T05:57:16;19.25;;;12.05;;
47896;SDS011;39629;51.400;5.494;2023-05-07T06:02:19;26.98;;;16.45;;
47896;SDS011;39629;51.400;5.494;2023-05-07T06:07:21;26.65;;;16.35;;
47896;SDS011;39629;51.400;5.494;2023-05-07T06:12:25;26.73;;;16.85;;
47896;SDS011;39629;51.400;5.494;2023-05-07T06:17:26;22.83;;;15.02;;
47896;SDS011;39629;51.400;5.494;2023-05-07T06:22:28;19.48;;;11.52;;
47896;SDS011;39629;51.400;5.494;2023-05-07T06:27:31;17.77;;;11.18;;
47896;SDS011;39629;51.400;5.494;2023-05-07T06:32:33;21.52;;;14.68;;
47896;SDS011;39629;51.400;5.494;2023-05-07T06:37:35;23.67;;;13.40;;
47896;SDS011;39629;51.400;5.494;2023-05-07T06:42:41;24.02;;;14.38;;
47896;SDS011;39629;51.400;5.494;2023-05-07T06:48:01;15.40;;;9.73;;
47896;SDS011;39629;51.400;5.494;2023-05-07T06:53:06;17.70;;;11.50;;
47896;SDS011;39629;51.400;5.494;2023-05-07T06:58:09;16.70;;;10.90;;
47896;SDS011;39629;51.400;5.494;2023-05-07T07:03:12;16.48;;;10.48;;
47896;SDS011;39629;51.400;5.494;2023-05-07T07:08:14;15.43;;;10.30;;
47896;SDS011;39629;51.400;5.494;2023-05-07T07:13:19;20.38;;;11.60;;
47896;SDS011;39629;51.400;5.494;2023-05-07T07:18:21;18.25;;;12.57;;
47896;SDS011;39629;51.400;5.494;2023-05-07T07:23:24;13.73;;;9.13;;
47896;SDS011;39629;51.400;5.494;2023-05-07T07:28:27;16.52;;;10.40;;
47896;SDS011;39629;51.400;5.494;2023-05-07T07:33:29;18.52;;;11.00;;
47896;SDS011;39629;51.400;5.494;2023-05-07T07:38:31;14.80;;;9.75;;
47896;SDS011;39629;51.400;5.494;2023-05-07T07:43:34;13.52;;;8.70;;
47896;SDS011;39629;51.400;5.494;2023-05-07T07:53:38;14.00;;;8.57;;
47896;SDS011;39629;51.400;5.494;2023-05-07T07:58:42;17.05;;;11.43;;
47896;SDS011;39629;51.400;5.494;2023-05-07T08:03:44;16.48;;;11.15;;
47896;SDS011;39629;51.400;5.494;2023-05-07T08:08:47;14.55;;;10.38;;
47896;SDS011;39629;51.400;5.494;2023-05-07T08:13:51;14.90;;;10.73;;
47896;SDS011;39629;51.400;5.494;2023-05-07T08:18:54;16.65;;;10.90;;
47896;SDS011;39629;51.400;5.494;2023-05-07T08:23:56;14.57;;;9.35;;
47896;SDS011;39629;51.400;5.494;2023-05-07T08:28:59;19.55;;;10.57;;
47896;SDS011;39629;51.400;5.494;2023-05-07T08:34:03;13.53;;;9.53;;
47896;SDS011;39629;51.400;5.494;2023-05-07T08:44:11;14.10;;;9.32;;
47896;SDS011;39629;51.400;5.494;2023-05-07T08:49:14;14.85;;;9.93;;
47896;SDS011;39629;51.400;5.494;2023-05-07T08:54:16;12.85;;;9.27;;
47896;SDS011;39629;51.400;5.494;2023-05-07T08:59:21;16.92;;;9.75;;
47896;SDS011;39629;51.400;5.494;2023-05-07T09:04:23;12.88;;;8.85;;
47896;SDS011;39629;51.400;5.494;2023-05-07T09:09:25;13.90;;;9.00;;
47896;SDS011;39629;51.400;5.494;2023-05-07T09:14:30;10.85;;;7.63;;
47896;SDS011;39629;51.400;5.494;2023-05-07T09:19:32;8.45;;;6.63;;
47896;SDS011;39629;51.400;5.494;2023-05-07T09:24:37;9.48;;;6.50;;
47896;SDS011;39629;51.400;5.494;2023-05-07T09:29:44;11.00;;;6.88;;
47896;SDS011;39629;51.400;5.494;2023-05-07T09:34:47;10.40;;;7.10;;
47896;SDS011;39629;51.400;5.494;2023-05-07T09:39:52;10.32;;;6.32;;
47896;SDS011;39629;51.400;5.494;2023-05-07T09:44:59;8.77;;;6.15;;
47896;SDS011;39629;51.400;5.494;2023-05-07T09:50:07;8.40;;;4.78;;
47896;SDS011;39629;51.400;5.494;2023-05-07T09:55:12;7.53;;;5.63;;
47896;SDS011;39629;51.400;5.494;2023-05-07T10:00:17;8.93;;;5.45;;
47896;SDS011;39629;51.400;5.494;2023-05-07T10:05:21;8.05;;;5.85;;
47896;SDS011;39629;51.400;5.494;2023-05-07T10:15:29;7.00;;;5.07;;
47896;SDS011;39629;51.400;5.494;2023-05-07T10:20:33;7.80;;;4.78;;
47896;SDS011;39629;51.400;5.494;2023-05-07T10:25:36;7.07;;;3.90;;
47896;SDS011;39629;51.400;5.494;2023-05-07T10:30:49;4.60;;;3.20;;
47896;SDS011;39629;51.400;5.494;2023-05-07T10:36:03;4.38;;;2.97;;
47896;SDS011;39629;51.400;5.494;2023-05-07T10:41:08;4.72;;;3.60;;
47896;SDS011;39629;51.400;5.494;2023-05-07T10:46:17;4.60;;;2.80;;
47896;SDS011;39629;51.400;5.494;2023-05-07T10:51:26;5.15;;;3.30;;
47896;SDS011;39629;51.400;5.494;2023-05-07T10:56:36;5.70;;;3.65;;
47896;SDS011;39629;51.400;5.494;2023-05-07T11:01:50;4.55;;;2.70;;
47896;SDS011;39629;51.400;5.494;2023-05-07T11:07:10;4.18;;;2.92;;
47896;SDS011;39629;51.400;5.494;2023-05-07T11:12:47;6.32;;;3.42;;
47896;SDS011;39629;51.400;5.494;2023-05-07T11:17:55;4.75;;;3.47;;
47896;SDS011;39629;51.400;5.494;2023-05-07T11:23:00;4.22;;;2.90;;
47896;SDS011;39629;51.400;5.494;2023-05-07T11:28:11;4.75;;;2.83;;
47896;SDS011;39629;51.400;5.494;2023-05-07T11:33:20;5.65;;;2.95;;
47896;SDS011;39629;51.400;5.494;2023-05-07T11:38:28;5.50;;;3.90;;
47896;SDS011;39629;51.400;5.494;2023-05-07T11:43:30;6.70;;;4.60;;
47896;SDS011;39629;51.400;5.494;2023-05-07T11:48:33;4.93;;;3.50;;
47896;SDS011;39629;51.400;5.494;2023-05-07T11:53:36;6.63;;;3.53;;
47896;SDS011;39629;51.400;5.494;2023-05-07T12:03:42;6.72;;;3.50;;
47896;SDS011;39629;51.400;5.494;2023-05-07T12:08:45;5.60;;;4.00;;
47896;SDS011;39629;51.400;5.494;2023-05-07T12:13:47;5.20;;;3.85;;
47896;SDS011;39629;51.400;5.494;2023-05-07T12:18:51;6.75;;;4.35;;
47896;SDS011;39629;51.400;5.494;2023-05-07T12:23:55;4.90;;;3.30;;
47896;SDS011;39629;51.400;5.494;2023-05-07T12:28:57;8.45;;;3.08;;
47896;SDS011;39629;51.400;5.494;2023-05-07T12:34:01;9.10;;;3.30;;
47896;SDS011;39629;51.400;5.494;2023-05-07T12:39:04;5.50;;;2.95;;
47896;SDS011;39629;51.400;5.494;2023-05-07T12:44:05;6.53;;;2.30;;
47896;SDS011;39629;51.400;5.494;2023-05-07T12:49:08;4.03;;;1.70;;
47896;SDS011;39629;51.400;5.494;2023-05-07T12:54:10;4.63;;;1.90;;
47896;SDS011;39629;51.400;5.494;2023-05-07T12:59:11;3.33;;;1.55;;
47896;SDS011;39629;51.400;5.494;2023-05-07T13:04:14;5.18;;;1.70;;
47896;SDS011;39629;51.400;5.494;2023-05-07T13:09:16;3.57;;;1.60;;
47896;SDS011;39629;51.400;5.494;2023-05-07T13:14:17;6.18;;;1.90;;
47896;SDS011;39629;51.400;5.494;2023-05-07T13:19:22;4.63;;;1.63;;
47896;SDS011;39629;51.400;5.494;2023-05-07T13:24:23;3.43;;;1.57;;
47896;SDS011;39629;51.400;5.494;2023-05-07T13:29:25;3.60;;;1.42;;
47896;SDS011;39629;51.400;5.494;2023-05-07T13:34:31;3.60;;;1.52;;
47896;SDS011;39629;51.400;5.494;2023-05-07T13:39:33;8.93;;;1.70;;
47896;SDS011;39629;51.400;5.494;2023-05-07T13:44:35;5.97;;;1.88;;
47896;SDS011;39629;51.400;5.494;2023-05-07T13:49:37;4.95;;;1.80;;
47896;SDS011;39629;51.400;5.494;2023-05-07T13:54:39;6.37;;;1.97;;
47896;SDS011;39629;51.400;5.494;2023-05-07T13:59:41;4.20;;;2.35;;
47896;SDS011;39629;51.400;5.494;2023-05-07T14:04:43;6.80;;;2.13;;
47896;SDS011;39629;51.400;5.494;2023-05-07T14:09:45;6.18;;;2.20;;
47896;SDS011;39629;51.400;5.494;2023-05-07T14:14:47;5.75;;;2.30;;
47896;SDS011;39629;51.400;5.494;2023-05-07T14:19:51;4.00;;;2.15;;
47896;SDS011;39629;51.400;5.494;2023-05-07T14:24:53;7.78;;;2.45;;
47896;SDS011;39629;51.400;5.494;2023-05-07T14:29:55;6.85;;;1.88;;
47896;SDS011;39629;51.400;5.494;2023-05-07T14:34:58;5.82;;;1.58;;
47896;SDS011;39629;51.400;5.494;2023-05-07T14:39:59;4.43;;;1.90;;
47896;SDS011;39629;51.400;5.494;2023-05-07T14:45:01;4.55;;;2.05;;
47896;SDS011;39629;51.400;5.494;2023-05-07T14:50:05;3.75;;;2.08;;
47896;SDS011;39629;51.400;5.494;2023-05-07T14:55:07;3.13;;;1.80;;
47896;SDS011;39629;51.400;5.494;2023-05-07T15:00:09;2.92;;;1.60;;
47896;SDS011;39629;51.400;5.494;2023-05-07T15:05:14;2.22;;;1.67;;
47896;SDS011;39629;51.400;5.494;2023-05-07T15:10:16;3.10;;;1.73;;
47896;SDS011;39629;51.400;5.494;2023-05-07T15:15:17;3.10;;;1.85;;
47896;SDS011;39629;51.400;5.494;2023-05-07T15:20:20;3.63;;;1.90;;
47896;SDS011;39629;51.400;5.494;2023-05-07T15:25:22;3.20;;;2.30;;
47896;SDS011;39629;51.400;5.494;2023-05-07T15:30:24;4.03;;;2.38;;
47896;SDS011;39629;51.400;5.494;2023-05-07T15:35:27;4.68;;;2.30;;
47896;SDS011;39629;51.400;5.494;2023-05-07T15:40:29;6.00;;;2.50;;
47896;SDS011;39629;51.400;5.494;2023-05-07T15:45:31;5.63;;;2.88;;
47896;SDS011;39629;51.400;5.494;2023-05-07T15:50:34;4.10;;;2.80;;
47896;SDS011;39629;51.400;5.494;2023-05-07T15:55:36;4.15;;;2.60;;
47896;SDS011;39629;51.400;5.494;2023-05-07T16:00:38;3.63;;;2.78;;
47896;SDS011;39629;51.400;5.494;2023-05-07T16:05:42;4.80;;;2.75;;
47896;SDS011;39629;51.400;5.494;2023-05-07T16:10:43;6.80;;;3.43;;
47896;SDS011;39629;51.400;5.494;2023-05-07T16:15:45;7.72;;;4.30;;
47896;SDS011;39629;51.400;5.494;2023-05-07T16:20:48;5.78;;;3.50;;
47896;SDS011;39629;51.400;5.494;2023-05-07T16:25:50;6.07;;;3.97;;
47896;SDS011;39629;51.400;5.494;2023-05-07T16:30:51;4.22;;;3.50;;
47896;SDS011;39629;51.400;5.494;2023-05-07T16:35:54;5.57;;;3.90;;
47896;SDS011;39629;51.400;5.494;2023-05-07T16:40:56;5.53;;;3.80;;
47896;SDS011;39629;51.400;5.494;2023-05-07T16:45:57;6.15;;;4.20;;
47896;SDS011;39629;51.400;5.494;2023-05-07T16:51:00;10.40;;;5.10;;
47896;SDS011;39629;51.400;5.494;2023-05-07T16:56:05;5.78;;;4.50;;
47896;SDS011;39629;51.400;5.494;2023-05-07T17:01:07;6.93;;;3.92;;
47896;SDS011;39629;51.400;5.494;2023-05-07T17:06:11;6.68;;;4.22;;
47896;SDS011;39629;51.400;5.494;2023-05-07T17:11:14;6.80;;;4.45;;
47896;SDS011;39629;51.400;5.494;2023-05-07T17:16:15;7.43;;;4.28;;
47896;SDS011;39629;51.400;5.494;2023-05-07T17:21:18;7.20;;;4.15;;
47896;SDS011;39629;51.400;5.494;2023-05-07T17:26:20;6.43;;;3.57;;
47896;SDS011;39629;51.400;5.494;2023-05-07T17:31:22;7.50;;;3.70;;
47896;SDS011;39629;51.400;5.494;2023-05-07T17:36:25;4.50;;;3.55;;
47896;SDS011;39629;51.400;5.494;2023-05-07T17:41:26;4.07;;;3.17;;
47896;SDS011;39629;51.400;5.494;2023-05-07T17:46:28;6.70;;;4.30;;
47896;SDS011;39629;51.400;5.494;2023-05-07T17:51:31;4.15;;;2.70;;
47896;SDS011;39629;51.400;5.494;2023-05-07T17:56:32;6.15;;;3.00;;
47896;SDS011;39629;51.400;5.494;2023-05-07T18:01:34;3.92;;;2.50;;
47896;SDS011;39629;51.400;5.494;2023-05-07T18:06:37;4.07;;;2.90;;
47896;SDS011;39629;51.400;5.494;2023-05-07T18:11:41;5.03;;;2.63;;
47896;SDS011;39629;51.400;5.494;2023-05-07T18:16:42;3.97;;;2.70;;
47896;SDS011;39629;51.400;5.494;2023-05-07T18:21:45;4.10;;;3.22;;
47896;SDS011;39629;51.400;5.494;2023-05-07T18:26:47;7.13;;;4.00;;
47896;SDS011;39629;51.400;5.494;2023-05-07T18:31:49;7.35;;;4.25;;
47896;SDS011;39629;51.400;5.494;2023-05-07T18:36:52;6.38;;;3.90;;
47896;SDS011;39629;51.400;5.494;2023-05-07T18:41:53;5.22;;;3.90;;
47896;SDS011;39629;51.400;5.494;2023-05-07T18:46:57;5.57;;;3.90;;
47896;SDS011;39629;51.400;5.494;2023-05-07T18:52:00;7.80;;;5.13;;
47896;SDS011;39629;51.400;5.494;2023-05-07T18:57:01;7.38;;;5.38;;
47896;SDS011;39629;51.400;5.494;2023-05-07T19:02:03;6.18;;;4.75;;
47896;SDS011;39629;51.400;5.494;2023-05-07T19:07:06;10.68;;;5.80;;
47896;SDS011;39629;51.400;5.494;2023-05-07T19:12:07;8.57;;;5.75;;
47896;SDS011;39629;51.400;5.494;2023-05-07T19:17:09;5.97;;;4.13;;
47896;SDS011;39629;51.400;5.494;2023-05-07T19:22:13;8.02;;;4.40;;
47896;SDS011;39629;51.400;5.494;2023-05-07T19:27:15;5.35;;;3.65;;
47896;SDS011;39629;51.400;5.494;2023-05-07T19:32:16;6.13;;;4.95;;
47896;SDS011;39629;51.400;5.494;2023-05-07T19:37:21;6.85;;;4.85;;
47896;SDS011;39629;51.400;5.494;2023-05-07T19:42:24;5.32;;;4.40;;
47896;SDS011;39629;51.400;5.494;2023-05-07T19:47:26;6.95;;;4.75;;
47896;SDS011;39629;51.400;5.494;2023-05-07T19:52:28;5.05;;;3.67;;
47896;SDS011;39629;51.400;5.494;2023-05-07T19:57:30;6.97;;;4.22;;
47896;SDS011;39629;51.400;5.494;2023-05-07T20:02:32;6.53;;;4.20;;
47896;SDS011;39629;51.400;5.494;2023-05-07T20:07:35;6.13;;;3.75;;
47896;SDS011;39629;51.400;5.494;2023-05-07T20:12:36;12.85;;;7.50;;
47896;SDS011;39629;51.400;5.494;2023-05-07T20:17:38;9.35;;;6.30;;
47896;SDS011;39629;51.400;5.494;2023-05-07T20:22:41;5.70;;;4.60;;
47896;SDS011;39629;51.400;5.494;2023-05-07T20:27:42;7.78;;;5.53;;
47896;SDS011;39629;51.400;5.494;2023-05-07T20:32:44;9.05;;;5.32;;
47896;SDS011;39629;51.400;5.494;2023-05-07T20:37:47;37.95;;;13.77;;
47896;SDS011;39629;51.400;5.494;2023-05-07T20:42:48;15.73;;;7.68;;
47896;SDS011;39629;51.400;5.494;2023-05-07T20:47:50;8.35;;;6.10;;
47896;SDS011;39629;51.400;5.494;2023-05-07T20:52:53;6.70;;;5.13;;
47896;SDS011;39629;51.400;5.494;2023-05-07T20:57:55;8.80;;;5.25;;
47896;SDS011;39629;51.400;5.494;2023-05-07T21:02:56;6.55;;;4.72;;
47896;SDS011;39629;51.400;5.494;2023-05-07T21:07:59;10.18;;;5.75;;
47896;SDS011;39629;51.400;5.494;2023-05-07T21:13:01;9.75;;;5.82;;
47896;SDS011;39629;51.400;5.494;2023-05-07T21:18:02;6.38;;;4.78;;
47896;SDS011;39629;51.400;5.494;2023-05-07T21:23:05;6.75;;;4.63;;
47896;SDS011;39629;51.400;5.494;2023-05-07T21:28:07;7.43;;;5.13;;
47896;SDS011;39629;51.400;5.494;2023-05-07T21:33:09;5.22;;;3.90;;
47896;SDS011;39629;51.400;5.494;2023-05-07T21:38:12;10.55;;;5.43;;
47896;SDS011;39629;51.400;5.494;2023-05-07T21:43:13;8.77;;;5.05;;
47896;SDS011;39629;51.400;5.494;2023-05-07T21:48:15;7.88;;;5.43;;
47896;SDS011;39629;51.400;5.494;2023-05-07T21:53:21;7.57;;;4.63;;
47896;SDS011;39629;51.400;5.494;2023-05-07T21:58:23;8.13;;;4.32;;
47896;SDS011;39629;51.400;5.494;2023-05-07T22:03:24;8.57;;;5.65;;
47896;SDS011;39629;51.400;5.494;2023-05-07T22:08:27;9.85;;;6.22;;
47896;SDS011;39629;51.400;5.494;2023-05-07T22:13:29;4.63;;;3.67;;
47896;SDS011;39629;51.400;5.494;2023-05-07T22:18:31;7.82;;;5.00;;
47896;SDS011;39629;51.400;5.494;2023-05-07T22:23:34;7.45;;;4.97;;
47896;SDS011;39629;51.400;5.494;2023-05-07T22:28:35;6.38;;;5.07;;
47896;SDS011;39629;51.400;5.494;2023-05-07T22:33:37;8.10;;;6.10;;
47896;SDS011;39629;51.400;5.494;2023-05-07T22:38:40;10.05;;;6.05;;
47896;SDS011;39629;51.400;5.494;2023-05-07T22:43:41;8.55;;;6.60;;
47896;SDS011;39629;51.400;5.494;2023-05-07T22:48:43;9.02;;;5.88;;
47896;SDS011;39629;51.400;5.494;2023-05-07T22:53:46;8.88;;;6.45;;
47896;SDS011;39629;51.400;5.494;2023-05-07T22:58:47;8.05;;;5.95;;
47896;SDS011;39629;51.400;5.494;2023-05-07T23:03:49;7.68;;;5.53;;
47896;SDS011;39629;51.400;5.494;2023-05-07T23:08:52;6.07;;;4.80;;
47896;SDS011;39629;51.400;5.494;2023-05-07T23:13:54;10.18;;;6.60;;
47896;SDS011;39629;51.400;5.494;2023-05-07T23:18:55;9.23;;;6.57;;
47896;SDS011;39629;51.400;5.494;2023-05-07T23:23:58;8.88;;;6.47;;
47896;SDS011;39629;51.400;5.494;2023-05-07T23:29:00;4.95;;;3.70;;
47896;SDS011;39629;51.400;5.494;2023-05-07T23:34:01;9.38;;;5.95;;
47896;SDS011;39629;51.400;5.494;2023-05-07T23:39:04;8.13;;;5.82;;
47896;SDS011;39629;51.400;5.494;2023-05-07T23:44:06;6.70;;;4.95;;
47896;SDS011;39629;51.400;5.494;2023-05-07T23:49:07;7.10;;;4.65;;
47896;SDS011;39629;51.400;5.494;2023-05-07T23:54:10;5.70;;;3.95;;
47896;SDS011;39629;51.400;5.494;2023-05-07T23:59:12;7.72;;;5.30;;
